sensor_id;sensor_type;location;lat;lon;timestamp;P1;durP1;ratioP1;P2;durP2;ratioP2
18526;SDS011;9393;42.158;24.748;2023-04-06T00:01:19;6.47;;;4.33;;
18526;SDS011;9393;42.158;24.748;2023-04-06T00:04:22;12.10;;;7.93;;
18526;SDS011;9393;42.158;24.748;2023-04-06T00:07:26;10.17;;;7.07;;
18526;SDS011;9393;42.158;24.748;2023-04-06T00:10:31;9.50;;;6.40;;
18526;SDS011;9393;42.158;24.748;2023-04-06T00:13:35;8.77;;;6.93;;
18526;SDS011;9393;42.158;24.748;2023-04-06T00:16:40;7.00;;;5.57;;
18526;SDS011;9393;42.158;24.748;2023-04-06T00:19:44;9.50;;;7.17;;
18526;SDS011;9393;42.158;24.748;2023-04-06T00:22:48;10.53;;;6.67;;
18526;SDS011;9393;42.158;24.748;2023-04-06T00:25:52;9.10;;;7.10;;
18526;SDS011;9393;42.158;24.748;2023-04-06T00:28:56;9.77;;;6.23;;
18526;SDS011;9393;42.158;24.748;2023-04-06T00:32:02;9.70;;;7.23;;
18526;SDS011;9393;42.158;24.748;2023-04-06T00:35:06;6.87;;;5.07;;
18526;SDS011;9393;42.158;24.748;2023-04-06T00:38:11;9.07;;;5.77;;
18526;SDS011;9393;42.158;24.748;2023-04-06T00:41:15;11.17;;;7.67;;
18526;SDS011;9393;42.158;24.748;2023-04-06T00:44:19;10.47;;;7.80;;
18526;SDS011;9393;42.158;24.748;2023-04-06T00:47:24;11.23;;;6.97;;
18526;SDS011;9393;42.158;24.748;2023-04-06T00:50:29;8.73;;;6.03;;
18526;SDS011;9393;42.158;24.748;2023-04-06T00:53:32;11.93;;;6.83;;
18526;SDS011;9393;42.158;24.748;2023-04-06T00:56:36;12.10;;;7.83;;
18526;SDS011;9393;42.158;24.748;2023-04-06T00:59:40;8.07;;;5.63;;
18526;SDS011;9393;42.158;24.748;2023-04-06T01:02:47;9.40;;;7.23;;
18526;SDS011;9393;42.158;24.748;2023-04-06T01:05:55;11.37;;;8.07;;
18526;SDS011;9393;42.158;24.748;2023-04-06T01:09:07;10.63;;;6.50;;
18526;SDS011;9393;42.158;24.748;2023-04-06T01:12:12;12.37;;;8.17;;
18526;SDS011;9393;42.158;24.748;2023-04-06T01:15:16;10.07;;;6.67;;
18526;SDS011;9393;42.158;24.748;2023-04-06T01:18:29;11.83;;;7.57;;
18526;SDS011;9393;42.158;24.748;2023-04-06T01:21:55;10.17;;;6.77;;
18526;SDS011;9393;42.158;24.748;2023-04-06T01:25:07;10.93;;;7.03;;
18526;SDS011;9393;42.158;24.748;2023-04-06T01:28:37;9.67;;;6.80;;
18526;SDS011;9393;42.158;24.748;2023-04-06T01:31:56;10.03;;;7.53;;
18526;SDS011;9393;42.158;24.748;2023-04-06T01:35:00;9.57;;;6.37;;
18526;SDS011;9393;42.158;24.748;2023-04-06T01:38:06;10.63;;;7.27;;
18526;SDS011;9393;42.158;24.748;2023-04-06T01:41:13;9.77;;;7.87;;
18526;SDS011;9393;42.158;24.748;2023-04-06T01:44:24;10.00;;;7.00;;
18526;SDS011;9393;42.158;24.748;2023-04-06T01:47:39;12.17;;;7.37;;
18526;SDS011;9393;42.158;24.748;2023-04-06T01:50:43;10.63;;;7.60;;
18526;SDS011;9393;42.158;24.748;2023-04-06T01:53:52;8.17;;;5.70;;
18526;SDS011;9393;42.158;24.748;2023-04-06T01:57:06;9.93;;;6.17;;
18526;SDS011;9393;42.158;24.748;2023-04-06T02:00:24;12.33;;;8.20;;
18526;SDS011;9393;42.158;24.748;2023-04-06T02:03:29;10.53;;;7.47;;
18526;SDS011;9393;42.158;24.748;2023-04-06T02:06:40;11.30;;;8.40;;
18526;SDS011;9393;42.158;24.748;2023-04-06T02:09:46;9.80;;;6.03;;
18526;SDS011;9393;42.158;24.748;2023-04-06T02:12:59;9.30;;;6.33;;
18526;SDS011;9393;42.158;24.748;2023-04-06T02:16:05;11.07;;;7.27;;
18526;SDS011;9393;42.158;24.748;2023-04-06T02:19:09;13.63;;;8.37;;
18526;SDS011;9393;42.158;24.748;2023-04-06T02:22:14;10.27;;;6.73;;
18526;SDS011;9393;42.158;24.748;2023-04-06T02:25:18;6.47;;;4.40;;
18526;SDS011;9393;42.158;24.748;2023-04-06T02:28:24;10.77;;;7.60;;
18526;SDS011;9393;42.158;24.748;2023-04-06T02:31:28;11.23;;;7.67;;
18526;SDS011;9393;42.158;24.748;2023-04-06T02:34:32;9.17;;;5.73;;
18526;SDS011;9393;42.158;24.748;2023-04-06T02:37:36;12.83;;;7.93;;
18526;SDS011;9393;42.158;24.748;2023-04-06T02:40:40;12.17;;;7.80;;
18526;SDS011;9393;42.158;24.748;2023-04-06T02:43:56;9.70;;;7.73;;
18526;SDS011;9393;42.158;24.748;2023-04-06T02:47:11;11.27;;;8.77;;
18526;SDS011;9393;42.158;24.748;2023-04-06T02:50:21;16.47;;;8.33;;
18526;SDS011;9393;42.158;24.748;2023-04-06T02:53:32;13.97;;;8.27;;
18526;SDS011;9393;42.158;24.748;2023-04-06T02:56:36;13.03;;;9.13;;
18526;SDS011;9393;42.158;24.748;2023-04-06T02:59:42;14.47;;;9.67;;
18526;SDS011;9393;42.158;24.748;2023-04-06T03:02:52;12.03;;;8.07;;
18526;SDS011;9393;42.158;24.748;2023-04-06T03:05:58;10.50;;;7.13;;
18526;SDS011;9393;42.158;24.748;2023-04-06T03:09:05;9.53;;;6.50;;
18526;SDS011;9393;42.158;24.748;2023-04-06T03:12:10;9.70;;;7.10;;
18526;SDS011;9393;42.158;24.748;2023-04-06T03:15:36;10.83;;;6.50;;
18526;SDS011;9393;42.158;24.748;2023-04-06T03:18:47;11.67;;;8.40;;
18526;SDS011;9393;42.158;24.748;2023-04-06T03:21:51;9.93;;;7.27;;
18526;SDS011;9393;42.158;24.748;2023-04-06T03:24:57;9.87;;;7.17;;
18526;SDS011;9393;42.158;24.748;2023-04-06T03:28:05;8.80;;;6.00;;
18526;SDS011;9393;42.158;24.748;2023-04-06T03:31:18;15.33;;;9.33;;
18526;SDS011;9393;42.158;24.748;2023-04-06T03:34:51;12.30;;;8.30;;
18526;SDS011;9393;42.158;24.748;2023-04-06T03:37:55;9.43;;;5.40;;
18526;SDS011;9393;42.158;24.748;2023-04-06T03:41:00;14.63;;;9.97;;
18526;SDS011;9393;42.158;24.748;2023-04-06T03:44:05;12.43;;;8.00;;
18526;SDS011;9393;42.158;24.748;2023-04-06T03:47:10;9.20;;;6.77;;
18526;SDS011;9393;42.158;24.748;2023-04-06T03:50:15;14.57;;;9.47;;
18526;SDS011;9393;42.158;24.748;2023-04-06T03:53:19;12.60;;;9.40;;
18526;SDS011;9393;42.158;24.748;2023-04-06T03:56:24;14.30;;;10.00;;
18526;SDS011;9393;42.158;24.748;2023-04-06T03:59:28;9.70;;;6.97;;
18526;SDS011;9393;42.158;24.748;2023-04-06T04:02:33;14.90;;;8.47;;
18526;SDS011;9393;42.158;24.748;2023-04-06T04:05:38;14.27;;;9.63;;
18526;SDS011;9393;42.158;24.748;2023-04-06T04:08:42;11.77;;;7.33;;
18526;SDS011;9393;42.158;24.748;2023-04-06T04:11:46;15.63;;;10.23;;
18526;SDS011;9393;42.158;24.748;2023-04-06T04:14:50;14.77;;;9.97;;
18526;SDS011;9393;42.158;24.748;2023-04-06T04:17:55;13.87;;;9.47;;
18526;SDS011;9393;42.158;24.748;2023-04-06T04:20:59;9.47;;;5.20;;
18526;SDS011;9393;42.158;24.748;2023-04-06T04:24:04;10.93;;;8.37;;
18526;SDS011;9393;42.158;24.748;2023-04-06T04:27:10;12.87;;;6.80;;
18526;SDS011;9393;42.158;24.748;2023-04-06T04:30:15;15.40;;;8.70;;
18526;SDS011;9393;42.158;24.748;2023-04-06T04:33:21;9.53;;;6.73;;
18526;SDS011;9393;42.158;24.748;2023-04-06T04:36:29;11.50;;;7.47;;
18526;SDS011;9393;42.158;24.748;2023-04-06T04:39:36;12.73;;;7.40;;
18526;SDS011;9393;42.158;24.748;2023-04-06T04:42:41;13.53;;;8.83;;
18526;SDS011;9393;42.158;24.748;2023-04-06T04:45:51;10.27;;;4.97;;
18526;SDS011;9393;42.158;24.748;2023-04-06T04:49:12;10.27;;;6.93;;
18526;SDS011;9393;42.158;24.748;2023-04-06T04:52:17;9.33;;;6.87;;
18526;SDS011;9393;42.158;24.748;2023-04-06T04:55:30;12.83;;;6.77;;
18526;SDS011;9393;42.158;24.748;2023-04-06T04:58:35;10.97;;;6.37;;
18526;SDS011;9393;42.158;24.748;2023-04-06T05:01:39;14.50;;;6.90;;
18526;SDS011;9393;42.158;24.748;2023-04-06T05:05:01;9.87;;;5.93;;
18526;SDS011;9393;42.158;24.748;2023-04-06T05:08:05;10.97;;;5.87;;
18526;SDS011;9393;42.158;24.748;2023-04-06T05:11:16;11.30;;;7.67;;
18526;SDS011;9393;42.158;24.748;2023-04-06T05:14:28;10.73;;;7.83;;
18526;SDS011;9393;42.158;24.748;2023-04-06T05:17:35;12.43;;;8.37;;
18526;SDS011;9393;42.158;24.748;2023-04-06T05:20:42;11.97;;;8.10;;
18526;SDS011;9393;42.158;24.748;2023-04-06T05:23:47;11.93;;;8.03;;
18526;SDS011;9393;42.158;24.748;2023-04-06T05:26:52;12.70;;;8.40;;
18526;SDS011;9393;42.158;24.748;2023-04-06T05:29:58;12.27;;;8.63;;
18526;SDS011;9393;42.158;24.748;2023-04-06T05:33:06;13.33;;;8.73;;
18526;SDS011;9393;42.158;24.748;2023-04-06T05:36:24;13.20;;;6.87;;
18526;SDS011;9393;42.158;24.748;2023-04-06T05:39:29;15.67;;;7.73;;
18526;SDS011;9393;42.158;24.748;2023-04-06T05:42:35;12.33;;;8.00;;
18526;SDS011;9393;42.158;24.748;2023-04-06T05:45:40;9.10;;;6.57;;
18526;SDS011;9393;42.158;24.748;2023-04-06T05:48:44;13.87;;;8.43;;
18526;SDS011;9393;42.158;24.748;2023-04-06T05:51:51;8.27;;;5.10;;
18526;SDS011;9393;42.158;24.748;2023-04-06T05:54:56;12.73;;;6.70;;
18526;SDS011;9393;42.158;24.748;2023-04-06T05:58:01;14.03;;;4.67;;
18526;SDS011;9393;42.158;24.748;2023-04-06T06:01:05;5.50;;;4.30;;
18526;SDS011;9393;42.158;24.748;2023-04-06T06:04:15;8.37;;;4.23;;
18526;SDS011;9393;42.158;24.748;2023-04-06T06:07:23;7.63;;;4.77;;
18526;SDS011;9393;42.158;24.748;2023-04-06T06:10:32;14.13;;;8.23;;
18526;SDS011;9393;42.158;24.748;2023-04-06T06:13:37;9.40;;;7.03;;
18526;SDS011;9393;42.158;24.748;2023-04-06T06:16:42;15.93;;;7.37;;
18526;SDS011;9393;42.158;24.748;2023-04-06T06:19:49;10.37;;;6.83;;
18526;SDS011;9393;42.158;24.748;2023-04-06T06:22:54;11.53;;;7.30;;
18526;SDS011;9393;42.158;24.748;2023-04-06T06:25:59;6.20;;;4.53;;
18526;SDS011;9393;42.158;24.748;2023-04-06T06:29:04;10.13;;;5.47;;
18526;SDS011;9393;42.158;24.748;2023-04-06T06:32:11;10.93;;;6.77;;
18526;SDS011;9393;42.158;24.748;2023-04-06T06:35:16;9.70;;;7.00;;
18526;SDS011;9393;42.158;24.748;2023-04-06T06:38:23;9.83;;;7.17;;
18526;SDS011;9393;42.158;24.748;2023-04-06T06:41:28;11.07;;;6.27;;
18526;SDS011;9393;42.158;24.748;2023-04-06T06:44:33;8.00;;;4.57;;
18526;SDS011;9393;42.158;24.748;2023-04-06T06:47:37;8.70;;;5.53;;
18526;SDS011;9393;42.158;24.748;2023-04-06T06:50:41;7.60;;;4.80;;
18526;SDS011;9393;42.158;24.748;2023-04-06T06:53:48;7.27;;;4.93;;
18526;SDS011;9393;42.158;24.748;2023-04-06T06:56:51;12.70;;;5.50;;
18526;SDS011;9393;42.158;24.748;2023-04-06T06:59:56;10.67;;;5.87;;
18526;SDS011;9393;42.158;24.748;2023-04-06T07:03:03;7.50;;;5.40;;
18526;SDS011;9393;42.158;24.748;2023-04-06T07:06:07;9.00;;;5.43;;
18526;SDS011;9393;42.158;24.748;2023-04-06T07:09:15;14.27;;;6.97;;
18526;SDS011;9393;42.158;24.748;2023-04-06T07:12:19;8.53;;;4.97;;
18526;SDS011;9393;42.158;24.748;2023-04-06T07:15:23;9.23;;;6.67;;
18526;SDS011;9393;42.158;24.748;2023-04-06T07:18:28;12.67;;;6.97;;
18526;SDS011;9393;42.158;24.748;2023-04-06T07:21:34;9.67;;;5.90;;
18526;SDS011;9393;42.158;24.748;2023-04-06T07:24:40;8.97;;;5.53;;
18526;SDS011;9393;42.158;24.748;2023-04-06T07:27:44;7.90;;;5.60;;
18526;SDS011;9393;42.158;24.748;2023-04-06T07:30:49;7.07;;;4.63;;
18526;SDS011;9393;42.158;24.748;2023-04-06T07:33:53;6.00;;;4.63;;
18526;SDS011;9393;42.158;24.748;2023-04-06T07:36:58;5.63;;;3.63;;
18526;SDS011;9393;42.158;24.748;2023-04-06T07:40:08;7.33;;;5.90;;
18526;SDS011;9393;42.158;24.748;2023-04-06T07:43:14;8.00;;;6.30;;
18526;SDS011;9393;42.158;24.748;2023-04-06T07:46:18;8.13;;;5.63;;
18526;SDS011;9393;42.158;24.748;2023-04-06T07:49:22;7.50;;;5.93;;
18526;SDS011;9393;42.158;24.748;2023-04-06T07:52:27;7.60;;;6.00;;
18526;SDS011;9393;42.158;24.748;2023-04-06T07:55:32;8.33;;;6.30;;
18526;SDS011;9393;42.158;24.748;2023-04-06T07:58:36;8.63;;;6.10;;
18526;SDS011;9393;42.158;24.748;2023-04-06T08:01:40;9.13;;;6.40;;
18526;SDS011;9393;42.158;24.748;2023-04-06T08:04:44;6.97;;;6.10;;
18526;SDS011;9393;42.158;24.748;2023-04-06T08:07:49;7.97;;;6.53;;
18526;SDS011;9393;42.158;24.748;2023-04-06T08:10:54;7.93;;;5.90;;
18526;SDS011;9393;42.158;24.748;2023-04-06T08:14:01;8.13;;;6.00;;
18526;SDS011;9393;42.158;24.748;2023-04-06T08:17:05;9.10;;;6.47;;
18526;SDS011;9393;42.158;24.748;2023-04-06T08:20:09;9.03;;;5.57;;
18526;SDS011;9393;42.158;24.748;2023-04-06T08:23:13;9.00;;;5.87;;
18526;SDS011;9393;42.158;24.748;2023-04-06T08:26:19;6.50;;;4.43;;
18526;SDS011;9393;42.158;24.748;2023-04-06T08:29:23;11.47;;;6.63;;
18526;SDS011;9393;42.158;24.748;2023-04-06T08:32:27;10.03;;;6.00;;
18526;SDS011;9393;42.158;24.748;2023-04-06T08:35:31;10.77;;;6.10;;
18526;SDS011;9393;42.158;24.748;2023-04-06T08:38:35;5.73;;;4.83;;
18526;SDS011;9393;42.158;24.748;2023-04-06T08:41:42;8.63;;;5.13;;
18526;SDS011;9393;42.158;24.748;2023-04-06T08:44:47;8.60;;;5.93;;
18526;SDS011;9393;42.158;24.748;2023-04-06T08:47:53;7.57;;;5.17;;
18526;SDS011;9393;42.158;24.748;2023-04-06T08:51:01;7.33;;;5.07;;
18526;SDS011;9393;42.158;24.748;2023-04-06T08:54:05;6.30;;;4.73;;
18526;SDS011;9393;42.158;24.748;2023-04-06T08:57:11;8.03;;;4.47;;
18526;SDS011;9393;42.158;24.748;2023-04-06T09:00:15;6.50;;;4.87;;
18526;SDS011;9393;42.158;24.748;2023-04-06T09:03:21;6.70;;;5.13;;
18526;SDS011;9393;42.158;24.748;2023-04-06T09:06:27;6.07;;;4.50;;
18526;SDS011;9393;42.158;24.748;2023-04-06T09:09:32;6.80;;;5.73;;
18526;SDS011;9393;42.158;24.748;2023-04-06T09:12:38;8.70;;;5.53;;
18526;SDS011;9393;42.158;24.748;2023-04-06T09:15:42;6.40;;;4.60;;
18526;SDS011;9393;42.158;24.748;2023-04-06T09:18:46;4.60;;;2.53;;
18526;SDS011;9393;42.158;24.748;2023-04-06T09:21:50;3.87;;;3.30;;
18526;SDS011;9393;42.158;24.748;2023-04-06T09:25:05;4.10;;;2.43;;
18526;SDS011;9393;42.158;24.748;2023-04-06T09:28:11;8.13;;;3.70;;
18526;SDS011;9393;42.158;24.748;2023-04-06T09:31:16;3.40;;;3.03;;
18526;SDS011;9393;42.158;24.748;2023-04-06T09:34:25;3.53;;;3.00;;
18526;SDS011;9393;42.158;24.748;2023-04-06T09:37:29;4.53;;;3.83;;
18526;SDS011;9393;42.158;24.748;2023-04-06T09:40:33;4.33;;;3.30;;
18526;SDS011;9393;42.158;24.748;2023-04-06T09:43:40;4.87;;;3.50;;
18526;SDS011;9393;42.158;24.748;2023-04-06T09:46:44;4.40;;;3.73;;
18526;SDS011;9393;42.158;24.748;2023-04-06T09:50:00;5.13;;;3.70;;
18526;SDS011;9393;42.158;24.748;2023-04-06T09:53:06;5.00;;;3.90;;
18526;SDS011;9393;42.158;24.748;2023-04-06T09:56:11;5.33;;;4.23;;
18526;SDS011;9393;42.158;24.748;2023-04-06T09:59:23;4.30;;;3.60;;
18526;SDS011;9393;42.158;24.748;2023-04-06T10:02:33;6.40;;;4.90;;
18526;SDS011;9393;42.158;24.748;2023-04-06T10:05:46;5.57;;;4.10;;
18526;SDS011;9393;42.158;24.748;2023-04-06T10:08:55;5.27;;;4.03;;
18526;SDS011;9393;42.158;24.748;2023-04-06T10:12:00;5.20;;;3.70;;
18526;SDS011;9393;42.158;24.748;2023-04-06T10:15:08;7.80;;;4.90;;
18526;SDS011;9393;42.158;24.748;2023-04-06T10:18:13;8.20;;;4.90;;
18526;SDS011;9393;42.158;24.748;2023-04-06T10:21:19;4.87;;;4.00;;
18526;SDS011;9393;42.158;24.748;2023-04-06T10:24:26;6.77;;;3.93;;
18526;SDS011;9393;42.158;24.748;2023-04-06T10:27:30;4.53;;;3.80;;
18526;SDS011;9393;42.158;24.748;2023-04-06T10:30:41;5.03;;;3.77;;
18526;SDS011;9393;42.158;24.748;2023-04-06T10:33:53;4.67;;;3.47;;
18526;SDS011;9393;42.158;24.748;2023-04-06T10:36:58;6.60;;;2.90;;
18526;SDS011;9393;42.158;24.748;2023-04-06T10:40:02;9.17;;;3.77;;
18526;SDS011;9393;42.158;24.748;2023-04-06T10:43:07;5.10;;;3.80;;
18526;SDS011;9393;42.158;24.748;2023-04-06T10:46:13;5.93;;;3.50;;
18526;SDS011;9393;42.158;24.748;2023-04-06T10:49:28;6.43;;;3.37;;
18526;SDS011;9393;42.158;24.748;2023-04-06T10:52:32;4.90;;;3.60;;
18526;SDS011;9393;42.158;24.748;2023-04-06T10:55:38;4.27;;;3.10;;
18526;SDS011;9393;42.158;24.748;2023-04-06T10:58:44;3.90;;;3.10;;
18526;SDS011;9393;42.158;24.748;2023-04-06T11:01:50;3.83;;;2.60;;
18526;SDS011;9393;42.158;24.748;2023-04-06T11:04:55;4.13;;;2.90;;
18526;SDS011;9393;42.158;24.748;2023-04-06T11:08:00;4.27;;;3.57;;
18526;SDS011;9393;42.158;24.748;2023-04-06T11:11:04;3.70;;;3.03;;
18526;SDS011;9393;42.158;24.748;2023-04-06T11:14:09;4.13;;;3.50;;
18526;SDS011;9393;42.158;24.748;2023-04-06T11:17:15;5.23;;;3.57;;
18526;SDS011;9393;42.158;24.748;2023-04-06T11:20:19;5.03;;;3.57;;
18526;SDS011;9393;42.158;24.748;2023-04-06T11:23:23;4.63;;;3.50;;
18526;SDS011;9393;42.158;24.748;2023-04-06T11:26:28;8.20;;;4.63;;
18526;SDS011;9393;42.158;24.748;2023-04-06T11:29:31;5.50;;;4.50;;
18526;SDS011;9393;42.158;24.748;2023-04-06T11:32:43;6.00;;;4.27;;
18526;SDS011;9393;42.158;24.748;2023-04-06T11:35:49;4.80;;;4.10;;
18526;SDS011;9393;42.158;24.748;2023-04-06T11:38:53;8.67;;;5.00;;
18526;SDS011;9393;42.158;24.748;2023-04-06T11:42:00;5.20;;;3.60;;
18526;SDS011;9393;42.158;24.748;2023-04-06T11:45:10;6.27;;;4.30;;
18526;SDS011;9393;42.158;24.748;2023-04-06T11:48:20;5.83;;;4.43;;
18526;SDS011;9393;42.158;24.748;2023-04-06T11:51:27;4.87;;;3.70;;
18526;SDS011;9393;42.158;24.748;2023-04-06T11:54:31;4.70;;;4.07;;
18526;SDS011;9393;42.158;24.748;2023-04-06T11:57:36;4.77;;;3.97;;
18526;SDS011;9393;42.158;24.748;2023-04-06T12:00:40;4.60;;;3.90;;
18526;SDS011;9393;42.158;24.748;2023-04-06T12:03:50;5.37;;;3.80;;
18526;SDS011;9393;42.158;24.748;2023-04-06T12:06:54;6.17;;;4.27;;
18526;SDS011;9393;42.158;24.748;2023-04-06T12:09:59;5.67;;;4.20;;
18526;SDS011;9393;42.158;24.748;2023-04-06T12:13:04;5.13;;;3.90;;
18526;SDS011;9393;42.158;24.748;2023-04-06T12:16:08;7.40;;;5.33;;
18526;SDS011;9393;42.158;24.748;2023-04-06T12:19:14;8.40;;;4.97;;
18526;SDS011;9393;42.158;24.748;2023-04-06T12:22:18;6.83;;;4.87;;
18526;SDS011;9393;42.158;24.748;2023-04-06T12:25:22;10.93;;;5.70;;
18526;SDS011;9393;42.158;24.748;2023-04-06T12:28:26;6.87;;;5.00;;
18526;SDS011;9393;42.158;24.748;2023-04-06T12:31:30;6.93;;;4.97;;
18526;SDS011;9393;42.158;24.748;2023-04-06T12:34:36;7.10;;;5.47;;
18526;SDS011;9393;42.158;24.748;2023-04-06T12:37:41;6.53;;;4.10;;
18526;SDS011;9393;42.158;24.748;2023-04-06T12:40:45;6.07;;;4.93;;
18526;SDS011;9393;42.158;24.748;2023-04-06T12:43:49;10.23;;;5.23;;
18526;SDS011;9393;42.158;24.748;2023-04-06T12:46:53;8.47;;;5.10;;
18526;SDS011;9393;42.158;24.748;2023-04-06T12:49:59;7.73;;;5.10;;
18526;SDS011;9393;42.158;24.748;2023-04-06T12:53:03;5.13;;;4.63;;
18526;SDS011;9393;42.158;24.748;2023-04-06T12:56:11;6.73;;;5.13;;
18526;SDS011;9393;42.158;24.748;2023-04-06T12:59:18;7.70;;;5.67;;
18526;SDS011;9393;42.158;24.748;2023-04-06T13:02:23;21.40;;;6.53;;
18526;SDS011;9393;42.158;24.748;2023-04-06T13:05:29;9.83;;;5.27;;
18526;SDS011;9393;42.158;24.748;2023-04-06T13:08:34;6.43;;;4.73;;
18526;SDS011;9393;42.158;24.748;2023-04-06T13:11:39;6.80;;;5.20;;
18526;SDS011;9393;42.158;24.748;2023-04-06T13:14:43;6.53;;;5.17;;
18526;SDS011;9393;42.158;24.748;2023-04-06T13:17:49;7.30;;;5.30;;
18526;SDS011;9393;42.158;24.748;2023-04-06T13:20:58;6.73;;;5.53;;
18526;SDS011;9393;42.158;24.748;2023-04-06T13:24:02;8.03;;;5.30;;
18526;SDS011;9393;42.158;24.748;2023-04-06T13:27:07;7.87;;;5.60;;
18526;SDS011;9393;42.158;24.748;2023-04-06T13:30:12;7.47;;;5.03;;
18526;SDS011;9393;42.158;24.748;2023-04-06T13:33:18;7.10;;;5.87;;
18526;SDS011;9393;42.158;24.748;2023-04-06T13:36:24;7.07;;;5.20;;
18526;SDS011;9393;42.158;24.748;2023-04-06T13:39:29;7.77;;;5.33;;
18526;SDS011;9393;42.158;24.748;2023-04-06T13:42:35;6.60;;;5.30;;
18526;SDS011;9393;42.158;24.748;2023-04-06T13:45:39;6.50;;;5.60;;
18526;SDS011;9393;42.158;24.748;2023-04-06T13:48:43;7.30;;;4.73;;
18526;SDS011;9393;42.158;24.748;2023-04-06T13:51:50;6.40;;;4.83;;
18526;SDS011;9393;42.158;24.748;2023-04-06T13:54:54;4.97;;;4.10;;
18526;SDS011;9393;42.158;24.748;2023-04-06T13:57:58;7.27;;;5.10;;
18526;SDS011;9393;42.158;24.748;2023-04-06T14:01:02;6.57;;;5.20;;
18526;SDS011;9393;42.158;24.748;2023-04-06T14:04:08;6.83;;;4.40;;
18526;SDS011;9393;42.158;24.748;2023-04-06T14:07:14;6.00;;;5.00;;
18526;SDS011;9393;42.158;24.748;2023-04-06T14:10:17;6.17;;;4.90;;
18526;SDS011;9393;42.158;24.748;2023-04-06T14:13:23;5.00;;;4.50;;
18526;SDS011;9393;42.158;24.748;2023-04-06T14:16:28;6.03;;;4.43;;
18526;SDS011;9393;42.158;24.748;2023-04-06T14:19:33;5.30;;;3.70;;
18526;SDS011;9393;42.158;24.748;2023-04-06T14:22:39;6.57;;;4.73;;
18526;SDS011;9393;42.158;24.748;2023-04-06T14:25:44;8.83;;;4.70;;
18526;SDS011;9393;42.158;24.748;2023-04-06T14:28:48;5.57;;;4.30;;
18526;SDS011;9393;42.158;24.748;2023-04-06T14:31:53;5.57;;;4.20;;
18526;SDS011;9393;42.158;24.748;2023-04-06T14:35:02;7.97;;;5.47;;
18526;SDS011;9393;42.158;24.748;2023-04-06T14:38:09;7.27;;;4.70;;
18526;SDS011;9393;42.158;24.748;2023-04-06T14:41:16;7.80;;;5.17;;
18526;SDS011;9393;42.158;24.748;2023-04-06T14:44:20;7.10;;;4.60;;
18526;SDS011;9393;42.158;24.748;2023-04-06T14:47:24;7.17;;;5.30;;
18526;SDS011;9393;42.158;24.748;2023-04-06T14:50:28;7.40;;;5.33;;
18526;SDS011;9393;42.158;24.748;2023-04-06T14:53:34;10.30;;;6.30;;
18526;SDS011;9393;42.158;24.748;2023-04-06T14:56:37;9.17;;;6.27;;
18526;SDS011;9393;42.158;24.748;2023-04-06T14:59:41;8.47;;;6.47;;
18526;SDS011;9393;42.158;24.748;2023-04-06T15:02:45;7.70;;;5.43;;
18526;SDS011;9393;42.158;24.748;2023-04-06T15:05:49;6.47;;;5.37;;
18526;SDS011;9393;42.158;24.748;2023-04-06T15:08:54;5.00;;;4.40;;
18526;SDS011;9393;42.158;24.748;2023-04-06T15:11:58;6.47;;;4.90;;
18526;SDS011;9393;42.158;24.748;2023-04-06T15:15:02;6.43;;;5.13;;
18526;SDS011;9393;42.158;24.748;2023-04-06T15:18:07;7.37;;;5.20;;
18526;SDS011;9393;42.158;24.748;2023-04-06T15:21:11;6.27;;;4.43;;
18526;SDS011;9393;42.158;24.748;2023-04-06T15:24:16;6.20;;;4.60;;
18526;SDS011;9393;42.158;24.748;2023-04-06T15:27:20;6.13;;;4.33;;
18526;SDS011;9393;42.158;24.748;2023-04-06T15:30:24;10.80;;;5.20;;
18526;SDS011;9393;42.158;24.748;2023-04-06T15:33:28;6.43;;;4.87;;
18526;SDS011;9393;42.158;24.748;2023-04-06T15:36:32;8.27;;;5.70;;
18526;SDS011;9393;42.158;24.748;2023-04-06T15:39:37;7.77;;;5.63;;
18526;SDS011;9393;42.158;24.748;2023-04-06T15:42:41;8.70;;;5.70;;
18526;SDS011;9393;42.158;24.748;2023-04-06T15:45:45;7.53;;;6.00;;
18526;SDS011;9393;42.158;24.748;2023-04-06T15:48:49;10.90;;;6.70;;
18526;SDS011;9393;42.158;24.748;2023-04-06T15:51:53;9.20;;;5.73;;
18526;SDS011;9393;42.158;24.748;2023-04-06T15:54:58;6.93;;;5.20;;
18526;SDS011;9393;42.158;24.748;2023-04-06T15:58:03;6.87;;;5.43;;
18526;SDS011;9393;42.158;24.748;2023-04-06T16:01:11;8.27;;;5.70;;
18526;SDS011;9393;42.158;24.748;2023-04-06T16:04:16;8.60;;;6.13;;
18526;SDS011;9393;42.158;24.748;2023-04-06T16:07:20;10.37;;;7.13;;
18526;SDS011;9393;42.158;24.748;2023-04-06T16:10:25;10.33;;;6.67;;
18526;SDS011;9393;42.158;24.748;2023-04-06T16:13:29;9.57;;;8.03;;
18526;SDS011;9393;42.158;24.748;2023-04-06T16:16:33;9.63;;;7.13;;
18526;SDS011;9393;42.158;24.748;2023-04-06T16:19:37;8.80;;;4.50;;
18526;SDS011;9393;42.158;24.748;2023-04-06T16:22:41;8.97;;;6.87;;
18526;SDS011;9393;42.158;24.748;2023-04-06T16:25:46;7.77;;;6.07;;
18526;SDS011;9393;42.158;24.748;2023-04-06T16:28:51;10.63;;;7.10;;
18526;SDS011;9393;42.158;24.748;2023-04-06T16:31:55;9.90;;;6.57;;
18526;SDS011;9393;42.158;24.748;2023-04-06T16:34:59;8.67;;;6.43;;
18526;SDS011;9393;42.158;24.748;2023-04-06T16:38:04;13.67;;;7.80;;
18526;SDS011;9393;42.158;24.748;2023-04-06T16:41:09;10.67;;;7.67;;
18526;SDS011;9393;42.158;24.748;2023-04-06T16:44:13;11.73;;;8.37;;
18526;SDS011;9393;42.158;24.748;2023-04-06T16:47:17;11.83;;;8.47;;
18526;SDS011;9393;42.158;24.748;2023-04-06T16:50:21;10.10;;;7.53;;
18526;SDS011;9393;42.158;24.748;2023-04-06T16:53:24;9.83;;;7.70;;
18526;SDS011;9393;42.158;24.748;2023-04-06T16:56:30;14.50;;;8.13;;
18526;SDS011;9393;42.158;24.748;2023-04-06T16:59:34;8.93;;;7.10;;
18526;SDS011;9393;42.158;24.748;2023-04-06T17:02:38;11.67;;;7.97;;
18526;SDS011;9393;42.158;24.748;2023-04-06T17:05:42;9.63;;;7.17;;
18526;SDS011;9393;42.158;24.748;2023-04-06T17:08:47;9.37;;;6.40;;
18526;SDS011;9393;42.158;24.748;2023-04-06T17:11:53;11.17;;;6.53;;
18526;SDS011;9393;42.158;24.748;2023-04-06T17:14:57;9.70;;;7.40;;
18526;SDS011;9393;42.158;24.748;2023-04-06T17:18:01;9.90;;;7.87;;
18526;SDS011;9393;42.158;24.748;2023-04-06T17:21:05;10.23;;;7.43;;
18526;SDS011;9393;42.158;24.748;2023-04-06T17:24:11;11.63;;;6.30;;
18526;SDS011;9393;42.158;24.748;2023-04-06T17:27:16;12.40;;;8.30;;
18526;SDS011;9393;42.158;24.748;2023-04-06T17:30:24;9.43;;;7.23;;
18526;SDS011;9393;42.158;24.748;2023-04-06T17:33:28;9.40;;;8.07;;
18526;SDS011;9393;42.158;24.748;2023-04-06T17:36:33;14.63;;;8.60;;
18526;SDS011;9393;42.158;24.748;2023-04-06T17:39:37;11.03;;;8.73;;
18526;SDS011;9393;42.158;24.748;2023-04-06T17:42:42;9.87;;;7.67;;
18526;SDS011;9393;42.158;24.748;2023-04-06T17:45:47;9.83;;;7.23;;
18526;SDS011;9393;42.158;24.748;2023-04-06T17:48:51;9.23;;;7.33;;
18526;SDS011;9393;42.158;24.748;2023-04-06T17:51:55;10.23;;;8.03;;
18526;SDS011;9393;42.158;24.748;2023-04-06T17:54:59;9.27;;;7.27;;
18526;SDS011;9393;42.158;24.748;2023-04-06T17:58:04;9.40;;;6.73;;
18526;SDS011;9393;42.158;24.748;2023-04-06T18:01:08;10.30;;;7.80;;
18526;SDS011;9393;42.158;24.748;2023-04-06T18:04:13;9.03;;;7.03;;
18526;SDS011;9393;42.158;24.748;2023-04-06T18:07:16;9.37;;;7.20;;
18526;SDS011;9393;42.158;24.748;2023-04-06T18:10:20;12.10;;;6.90;;
18526;SDS011;9393;42.158;24.748;2023-04-06T18:13:26;6.43;;;4.83;;
18526;SDS011;9393;42.158;24.748;2023-04-06T18:16:30;7.53;;;5.97;;
18526;SDS011;9393;42.158;24.748;2023-04-06T18:19:39;10.23;;;7.20;;
18526;SDS011;9393;42.158;24.748;2023-04-06T18:22:43;8.93;;;7.00;;
18526;SDS011;9393;42.158;24.748;2023-04-06T18:25:47;10.07;;;7.73;;
18526;SDS011;9393;42.158;24.748;2023-04-06T18:28:52;8.83;;;7.03;;
18526;SDS011;9393;42.158;24.748;2023-04-06T18:31:56;9.83;;;7.40;;
18526;SDS011;9393;42.158;24.748;2023-04-06T18:35:00;11.50;;;8.10;;